Time;durP1;ratioP1;P1;durP2;ratioP2;P2;SDS_P1;SDS_P2;PMS_P1;PMS_P2;Temp;Humidity;BMP_temperature;BMP_pressure;BME280_temperature;BME280_humidity;BME280_pressure;Samples;Min_cycle;Max_cycle;Signal;HPM_P1;HPM_P2
2022/08/16 00:02:33;;;;;;;5.05;2.70;;;24.30;74.60;;;;;;4859998;29;20100;-87
2022/08/16 00:05:02;;;;;;;8.57;3.15;;;24.20;74.50;;;;;;4862112;29;20494;-87
2022/08/16 00:07:29;;;;;;;6.07;2.70;;;24.10;74.50;;;;;;4863067;29;20435;-88
2022/08/16 00:09:58;;;;;;;5.65;3.10;;;24.10;74.70;;;;;;4852510;29;20049;-88
2022/08/16 00:12:28;;;;;;;5.30;3.28;;;24.10;74.60;;;;;;4865754;29;20053;-88
2022/08/16 00:14:59;;;;;;;7.60;4.10;;;24.10;74.40;;;;;;4859000;29;20045;-88
2022/08/16 00:17:27;;;;;;;6.88;3.35;;;24.10;74.50;;;;;;4861035;29;20057;-88
2022/08/16 00:20:14;;;;;;;11.13;3.70;;;24.10;74.50;;;;;;4863118;29;20045;-88
2022/08/16 00:22:47;;;;;;;8.63;2.80;;;24.10;75.00;;;;;;4870164;29;20049;-87
2022/08/16 00:25:20;;;;;;;5.28;3.30;;;24.10;75.80;;;;;;4870365;29;20498;-87
2022/08/16 00:28:07;;;;;;;7.55;3.33;;;24.00;76.10;;;;;;4856263;29;20045;-88
2022/08/16 00:30:37;;;;;;;4.97;3.10;;;24.00;75.70;;;;;;4863434;29;20053;-87
2022/08/16 00:33:06;;;;;;;6.10;3.50;;;24.00;75.60;;;;;;4863671;29;20076;-87
2022/08/16 00:35:36;;;;;;;6.50;3.33;;;24.00;75.70;;;;;;4854066;29;20068;-88
2022/08/16 00:38:04;;;;;;;5.30;2.75;;;23.90;75.50;;;;;;4865127;29;20041;-87
2022/08/16 00:40:53;;;;;;;7.72;3.28;;;23.90;77.00;;;;;;4859880;29;20045;-87
2022/08/16 00:43:27;;;;;;;6.93;3.00;;;23.90;76.50;;;;;;4853638;29;20065;-87
2022/08/16 00:46:08;;;;;;;4.13;2.88;;;23.90;76.70;;;;;;4851581;29;20049;-87
2022/08/16 00:48:56;;;;;;;7.28;3.70;;;23.90;77.00;;;;;;4872125;29;20049;-87
2022/08/16 00:51:24;;;;;;;6.82;3.35;;;23.80;76.80;;;;;;4862265;29;20052;-87
2022/08/16 00:53:57;;;;;;;5.35;3.03;;;23.80;77.60;;;;;;4863204;29;20049;-87
2022/08/16 00:56:32;;;;;;;6.53;3.47;;;23.70;77.70;;;;;;4862331;29;20246;-87
2022/08/16 00:59:23;;;;;;;5.63;3.20;;;23.70;77.60;;;;;;4864754;29;20045;-88
2022/08/16 01:01:52;;;;;;;5.32;3.10;;;23.70;78.00;;;;;;4862247;29;20053;-87
2022/08/16 01:04:24;;;;;;;5.75;3.35;;;23.60;78.20;;;;;;4850476;29;20071;-87
2022/08/16 01:07:03;;;;;;;4.95;2.97;;;23.60;78.20;;;;;;4873736;29;20052;-87
2022/08/16 01:09:37;;;;;;;4.57;3.20;;;23.60;78.90;;;;;;4847066;29;20053;-87
2022/08/16 01:12:10;;;;;;;8.80;3.80;;;23.60;78.90;;;;;;4856124;29;20069;-87
2022/08/16 01:14:57;;;;;;;7.22;3.10;;;23.50;79.70;;;;;;4847426;29;20057;-87
2022/08/16 01:17:27;;;;;;;7.05;2.92;;;23.60;79.00;;;;;;4844957;29;20049;-88
2022/08/16 01:20:07;;;;;;;4.47;3.10;;;23.50;79.90;;;;;;4860708;29;20051;-88
2022/08/16 01:23:16;;;;;;;5.30;3.05;;;23.50;80.10;;;;;;4868651;29;20130;-88
2022/08/16 01:25:48;;;;;;;6.75;3.10;;;23.40;80.80;;;;;;4855038;29;20467;-87
2022/08/16 01:28:35;;;;;;;6.03;3.47;;;23.40;79.80;;;;;;4863300;29;20049;-88
2022/08/16 01:31:13;;;;;;;4.45;3.35;;;23.30;79.60;;;;;;4855515;29;20109;-89
2022/08/16 01:33:41;;;;;;;5.97;3.70;;;23.40;80.10;;;;;;4857492;29;20479;-88
2022/08/16 01:36:11;;;;;;;6.65;3.72;;;23.30;80.00;;;;;;4855773;29;20059;-88
2022/08/16 01:38:45;;;;;;;8.50;3.88;;;23.30;80.40;;;;;;4857434;29;20427;-87
2022/08/16 01:41:29;;;;;;;6.55;3.90;;;23.30;80.30;;;;;;4848928;29;20045;-87
2022/08/16 01:44:01;;;;;;;7.15;3.53;;;23.30;80.10;;;;;;4880286;29;20089;-87
2022/08/16 01:46:36;;;;;;;8.18;3.58;;;23.20;80.00;;;;;;4862565;29;20065;-87
2022/08/16 01:49:17;;;;;;;7.35;3.67;;;23.20;80.50;;;;;;4859672;29;20088;-87
2022/08/16 01:51:50;;;;;;;9.60;3.70;;;23.20;80.20;;;;;;4861596;29;20049;-87
2022/08/16 01:54:24;;;;;;;7.70;4.13;;;23.20;81.10;;;;;;4859783;29;20049;-87
2022/08/16 01:56:59;;;;;;;7.93;3.88;;;23.20;80.80;;;;;;4862484;29;20136;-87
2022/08/16 01:59:27;;;;;;;7.68;3.85;;;23.20;80.60;;;;;;4867266;29;20061;-87
2022/08/16 02:01:57;;;;;;;6.05;3.58;;;23.10;80.60;;;;;;4847122;29;20135;-88
2022/08/16 02:04:30;;;;;;;7.18;3.47;;;23.10;80.90;;;;;;4861061;29;20134;-88
2022/08/16 02:07:19;;;;;;;8.10;3.38;;;23.00;80.90;;;;;;4854346;29;20082;-88
2022/08/16 02:09:50;;;;;;;7.25;3.60;;;23.00;81.20;;;;;;4860775;29;20143;-87
2022/08/16 02:12:35;;;;;;;9.55;3.90;;;23.00;81.60;;;;;;4860971;29;20116;-88
2022/08/16 02:15:21;;;;;;;8.27;4.05;;;22.90;81.50;;;;;;4863541;29;20056;-88
2022/08/16 02:17:58;;;;;;;5.95;3.60;;;22.90;81.90;;;;;;4867808;29;20141;-87
2022/08/16 02:20:31;;;;;;;8.23;3.58;;;22.90;82.40;;;;;;4842659;29;20401;-88
2022/08/16 02:23:02;;;;;;;9.93;3.70;;;22.90;82.70;;;;;;4862170;29;20045;-88
2022/08/16 02:25:32;;;;;;;8.15;4.57;;;22.80;82.90;;;;;;4862028;29;20041;-87
2022/08/16 02:28:21;;;;;;;7.78;3.85;;;22.80;83.20;;;;;;4858555;29;20041;-88
2022/08/16 02:30:50;;;;;;;8.45;3.95;;;22.80;83.20;;;;;;4856886;29;20061;-87
2022/08/16 02:33:20;;;;;;;7.18;3.72;;;22.80;83.50;;;;;;4874065;29;20507;-89
2022/08/16 02:36:12;;;;;;;6.32;4.07;;;22.80;83.30;;;;;;4870900;29;20072;-87
2022/08/16 02:39:00;;;;;;;7.60;4.10;;;22.70;84.00;;;;;;4865312;29;20037;-88
2022/08/16 02:41:29;;;;;;;7.28;3.55;;;22.70;84.30;;;;;;4865063;29;20041;-88
2022/08/16 02:44:00;;;;;;;8.68;3.63;;;22.60;84.10;;;;;;4863300;29;20144;-88
2022/08/16 02:46:28;;;;;;;9.27;4.53;;;22.60;84.40;;;;;;4861269;29;20049;-87
2022/08/16 02:49:01;;;;;;;5.85;3.40;;;22.60;84.80;;;;;;4871280;29;20049;-88
2022/08/16 02:51:29;;;;;;;8.90;4.38;;;22.60;84.50;;;;;;4864965;29;20049;-88
2022/08/16 02:54:00;;;;;;;9.75;4.38;;;22.50;85.40;;;;;;4862081;29;20772;-88
2022/08/16 02:56:28;;;;;;;6.85;4.28;;;22.50;85.10;;;;;;4864929;29;20053;-88
2022/08/16 02:58:58;;;;;;;8.73;4.28;;;22.50;85.40;;;;;;4861307;29;20695;-88
2022/08/16 03:01:30;;;;;;;7.20;3.95;;;22.40;86.00;;;;;;4864432;29;20108;-88
2022/08/16 03:04:09;;;;;;;7.10;3.33;;;22.50;86.00;;;;;;4862738;29;20045;-88
2022/08/16 03:06:57;;;;;;;5.85;3.63;;;22.40;85.90;;;;;;4865990;29;20380;-88
2022/08/16 03:09:41;;;;;;;7.20;4.45;;;22.30;85.80;;;;;;4862865;29;20153;-88
2022/08/16 03:12:13;;;;;;;8.50;4.25;;;22.30;85.90;;;;;;4857084;29;20045;-88
2022/08/16 03:14:45;;;;;;;9.48;4.20;;;22.30;86.40;;;;;;4860523;29;20049;-89
2022/08/16 03:17:14;;;;;;;12.15;4.35;;;22.30;86.70;;;;;;4865120;29;20707;-88
2022/08/16 03:19:43;;;;;;;6.72;4.28;;;22.20;86.80;;;;;;4865044;29;20383;-89
2022/08/16 03:22:23;;;;;;;9.77;4.30;;;22.20;87.20;;;;;;4861618;29;20057;-89
2022/08/16 03:25:07;;;;;;;6.25;4.07;;;22.20;87.10;;;;;;4860641;29;20096;-89
2022/08/16 03:27:37;;;;;;;8.02;4.40;;;22.20;87.20;;;;;;4865207;29;20045;-89
2022/08/16 03:30:19;;;;;;;6.85;4.07;;;22.20;87.30;;;;;;4877816;29;20057;-89
2022/08/16 03:32:51;;;;;;;8.13;4.40;;;22.20;87.90;;;;;;4858216;29;20081;-89
2022/08/16 03:35:25;;;;;;;9.50;4.43;;;22.10;88.30;;;;;;4857873;29;20053;-88
2022/08/16 03:38:19;;;;;;;6.35;3.97;;;22.10;88.20;;;;;;4866258;29;20064;-89
2022/08/16 03:41:05;;;;;;;6.28;4.03;;;22.10;88.30;;;;;;4861288;29;20152;-89
2022/08/16 03:43:55;;;;;;;7.95;4.45;;;22.10;88.80;;;;;;4846959;29;20048;-89
2022/08/16 03:46:27;;;;;;;9.93;4.30;;;22.00;88.60;;;;;;4857937;29;20049;-89
2022/08/16 03:49:20;;;;;;;9.20;4.80;;;22.10;88.80;;;;;;4861808;29;20049;-89
2022/08/16 03:51:51;;;;;;;8.15;4.15;;;22.00;88.70;;;;;;4876068;29;20465;-89
2022/08/16 03:54:27;;;;;;;8.88;5.13;;;22.00;89.00;;;;;;4858002;29;20065;-89
2022/08/16 03:56:57;;;;;;;11.07;4.72;;;22.10;89.00;;;;;;4862047;29;20068;-89
2022/08/16 03:59:27;;;;;;;10.68;4.50;;;22.10;88.80;;;;;;4872046;29;20097;-89
2022/08/16 04:01:59;;;;;;;12.07;4.80;;;22.10;89.40;;;;;;4845009;29;20045;-89
2022/08/16 04:04:30;;;;;;;;;;;22.00;90.10;;;;;;4856703;29;20098;-89
2022/08/16 04:07:04;;;;;;;9.65;4.35;;;22.10;89.10;;;;;;4860152;29;20006;-89
2022/08/16 04:09:37;;;;;;;10.90;5.70;;;22.20;88.80;;;;;;4861960;29;20049;-89
2022/08/16 04:12:10;;;;;;;8.27;4.82;;;22.20;88.60;;;;;;4847935;29;20060;-89
2022/08/16 04:15:00;;;;;;;12.02;5.50;;;22.10;88.60;;;;;;4862269;29;20109;-90
2022/08/16 04:17:32;;;;;;;9.90;4.90;;;22.10;88.30;;;;;;4847154;29;20045;-90
2022/08/16 04:20:06;;;;;;;9.95;5.05;;;22.10;88.30;;;;;;4864171;29;20033;-89
2022/08/16 04:22:54;;;;;;;11.73;4.93;;;22.20;88.70;;;;;;4860040;29;20041;-89
2022/08/16 04:25:26;;;;;;;13.32;5.43;;;22.20;89.00;;;;;;4858801;29;20057;-89
2022/08/16 04:27:55;;;;;;;9.98;5.07;;;22.20;88.70;;;;;;4866516;29;20133;-89
2022/08/16 04:30:47;;;;;;;10.40;5.53;;;22.20;88.90;;;;;;4857026;29;20140;-89
2022/08/16 04:33:19;;;;;;;9.32;4.90;;;22.20;88.80;;;;;;4847770;29;20054;-89
2022/08/16 04:35:57;;;;;;;11.23;4.95;;;22.10;88.90;;;;;;4846371;29;20052;-89
2022/08/16 04:38:28;;;;;;;11.43;5.18;;;22.20;89.30;;;;;;4858589;29;20779;-90
2022/08/16 04:40:57;;;;;;;12.60;5.93;;;22.30;88.80;;;;;;4856655;29;20041;-89
2022/08/16 04:43:26;;;;;;;9.88;5.70;;;22.30;88.40;;;;;;4841846;29;20061;-89
2022/08/16 04:45:58;;;;;;;10.77;5.28;;;22.40;88.60;;;;;;4859023;29;20049;-88
2022/08/16 04:48:33;;;;;;;11.48;5.03;;;22.40;89.10;;;;;;4863693;29;20049;-87
2022/08/16 04:51:08;;;;;;;10.05;4.82;;;22.40;89.70;;;;;;4848204;29;20144;-87
2022/08/16 04:53:44;;;;;;;12.63;5.68;;;22.40;88.90;;;;;;4862335;29;20153;-87
2022/08/16 04:56:14;;;;;;;15.95;6.15;;;22.50;88.70;;;;;;4853927;29;20064;-85
2022/08/16 04:58:43;;;;;;;17.08;5.85;;;22.60;87.90;;;;;;4853274;29;20038;-88
2022/08/16 05:01:19;;;;;;;10.52;4.88;;;22.60;87.40;;;;;;4857440;29;20143;-88
2022/08/16 05:03:47;;;;;;;14.88;5.03;;;22.60;87.40;;;;;;4864858;29;20140;-87
2022/08/16 05:06:35;;;;;;;15.80;5.30;;;22.70;87.00;;;;;;4846757;29;20407;-88
2022/08/16 05:09:19;;;;;;;22.00;6.03;;;22.70;86.70;;;;;;4863321;29;20038;-88
2022/08/16 05:11:53;;;;;;;14.45;5.63;;;22.80;87.10;;;;;;4856633;29;20106;-88
2022/08/16 05:14:25;;;;;;;14.02;5.10;;;22.90;87.00;;;;;;4857308;29;20082;-87
2022/08/16 05:17:18;;;;;;;12.43;5.00;;;23.00;85.20;;;;;;4862266;29;20052;-87
2022/08/16 05:19:56;;;;;;;16.45;5.38;;;23.10;85.80;;;;;;4869888;29;20046;-87
2022/08/16 05:22:38;;;;;;;9.65;4.72;;;23.30;85.70;;;;;;4843930;29;20057;-87
2022/08/16 05:25:14;;;;;;;16.60;6.00;;;23.30;85.80;;;;;;4859917;29;20064;-87
2022/08/16 05:27:47;;;;;;;10.95;4.35;;;23.40;84.00;;;;;;4860921;29;20372;-88
2022/08/16 05:30:18;;;;;;;11.43;5.10;;;23.60;83.60;;;;;;4847030;29;20057;-87
2022/08/16 05:33:05;;;;;;;11.23;5.35;;;23.70;82.40;;;;;;4874983;29;20549;-87
2022/08/16 05:35:44;;;;;;;12.38;4.70;;;23.80;81.60;;;;;;4859161;29;20128;-87
2022/08/16 05:38:45;;;;;;;9.32;4.05;;;23.80;81.80;;;;;;4858258;29;20053;-87
2022/08/16 05:41:14;;;;;;;10.38;4.57;;;23.80;82.10;;;;;;4854381;29;20060;-87
2022/08/16 05:43:44;;;;;;;6.72;4.18;;;23.90;82.20;;;;;;4873817;29;20049;-87
2022/08/16 05:46:26;;;;;;;8.43;4.07;;;23.80;81.20;;;;;;4861992;29;20073;-88
2022/08/16 05:49:07;;;;;;;10.60;4.30;;;23.90;80.70;;;;;;4864417;29;20046;-88
2022/08/16 05:51:40;;;;;;;;;;;24.00;80.90;;;;;;4863199;29;20072;-87
2022/08/16 05:54:13;;;;;;;8.30;4.35;;;24.10;80.70;;;;;;4855182;29;19986;-87
2022/08/16 05:56:46;;;;;;;9.32;4.72;;;24.30;80.60;;;;;;4858257;29;20068;-88
2022/08/16 05:59:17;;;;;;;8.27;4.75;;;24.40;78.80;;;;;;4861448;29;20518;-86
2022/08/16 06:01:49;;;;;;;8.32;4.45;;;24.60;79.10;;;;;;4854374;29;20053;-87
2022/08/16 06:04:21;;;;;;;10.40;4.90;;;24.70;78.30;;;;;;4840399;29;20045;-88
2022/08/16 06:07:08;;;;;;;8.43;4.82;;;24.80;77.00;;;;;;4863784;29;20079;-87
2022/08/16 06:10:00;;;;;;;10.90;5.38;;;25.00;76.00;;;;;;4863271;29;20048;-87
2022/08/16 06:12:31;;;;;;;9.45;4.88;;;25.10;76.00;;;;;;4864499;29;20051;-86
2022/08/16 06:15:08;;;;;;;10.00;4.90;;;25.20;76.00;;;;;;4850401;29;20041;-86
2022/08/16 06:17:39;;;;;;;8.75;4.63;;;25.20;74.80;;;;;;4877620;29;20143;-86
2022/08/16 06:20:24;;;;;;;8.13;4.28;;;25.10;76.30;;;;;;4862231;29;20072;-86
2022/08/16 06:23:11;;;;;;;8.13;4.25;;;25.00;77.60;;;;;;4863572;29;20053;-87
2022/08/16 06:25:54;;;;;;;7.15;4.40;;;25.30;77.30;;;;;;4863905;29;20053;-85
2022/08/16 06:28:26;;;;;;;;;;;25.30;75.80;;;;;;4863215;29;20045;-87
2022/08/16 06:31:09;;;;;;;6.63;4.05;;;25.30;75.70;;;;;;4860534;29;19930;-93
2022/08/16 06:33:41;;;;;;;10.13;4.75;;;25.40;76.40;;;;;;4864014;29;20065;-95
2022/08/16 06:36:15;;;;;;;8.57;4.43;;;25.60;76.00;;;;;;4861050;29;20045;-93
2022/08/16 06:38:55;;;;;;;9.40;4.60;;;25.60;75.30;;;;;;4862382;29;20048;-92
2022/08/16 06:41:37;;;;;;;8.00;4.43;;;25.60;76.20;;;;;;4870686;29;20053;-93
2022/08/16 06:44:09;;;;;;;10.90;4.35;;;25.50;75.50;;;;;;4848993;29;20057;-93
2022/08/16 06:46:52;;;;;;;6.32;4.55;;;25.80;75.50;;;;;;4861691;29;20069;-93
2022/08/16 06:49:20;;;;;;;10.20;4.70;;;26.40;75.10;;;;;;4867055;29;20061;-91
2022/08/16 06:51:48;;;;;;;7.53;4.50;;;26.70;74.20;;;;;;4863846;29;20085;-88
2022/08/16 06:54:24;;;;;;;11.63;4.95;;;26.90;74.20;;;;;;4859199;29;20057;-91
2022/08/16 06:56:52;;;;;;;9.57;5.28;;;27.00;73.70;;;;;;4861504;29;20506;-91
2022/08/16 06:59:22;;;;;;;11.93;5.35;;;27.20;72.60;;;;;;4844200;29;20499;-93
2022/08/16 07:01:55;;;;;;;10.73;5.07;;;27.40;71.00;;;;;;4858524;29;20565;-92
2022/08/16 07:04:26;;;;;;;10.75;5.15;;;27.50;69.30;;;;;;4859652;29;20053;-90
2022/08/16 07:07:11;;;;;;;14.82;4.65;;;27.10;69.30;;;;;;4844121;29;20060;-91
2022/08/16 07:09:41;;;;;;;9.48;4.18;;;26.90;70.80;;;;;;4863880;29;20057;-91
2022/08/16 07:12:09;;;;;;;7.68;5.28;;;27.30;70.80;;;;;;4858141;29;20077;-91
2022/08/16 07:14:40;;;;;;;12.47;4.57;;;27.50;68.60;;;;;;4863003;29;20089;-90
2022/08/16 07:17:11;;;;;;;8.68;4.22;;;27.50;68.90;;;;;;4867760;29;20053;-92
2022/08/16 07:19:48;;;;;;;9.50;4.20;;;27.20;66.40;;;;;;4863049;29;20045;-88
2022/08/16 07:22:50;;;;;;;7.45;3.83;;;27.20;68.10;;;;;;4851005;29;20113;-90
2022/08/16 07:25:40;;;;;;;8.07;4.32;;;27.70;65.40;;;;;;4862228;29;20041;-92
2022/08/16 07:28:13;;;;;;;6.43;3.50;;;27.90;65.60;;;;;;4856907;29;20052;-92
2022/08/16 07:30:51;;;;;;;6.78;4.82;;;27.40;65.10;;;;;;4856755;29;20049;-91
2022/08/16 07:33:30;;;;;;;7.50;3.55;;;27.10;66.30;;;;;;4860325;29;20061;-91
2022/08/16 07:36:19;;;;;;;7.22;4.05;;;26.90;66.70;;;;;;4864007;29;20048;-92
2022/08/16 07:38:51;;;;;;;6.72;3.85;;;27.00;67.90;;;;;;4862158;29;20049;-91
2022/08/16 07:41:21;;;;;;;8.30;4.68;;;27.40;67.90;;;;;;4858722;29;20054;-92
2022/08/16 07:43:58;;;;;;;7.43;3.83;;;27.80;65.20;;;;;;4858779;29;20053;-89
2022/08/16 07:46:30;;;;;;;8.93;4.07;;;28.00;64.70;;;;;;4855883;29;20563;-90
2022/08/16 07:49:32;;;;;;;7.18;4.20;;;28.20;64.00;;;;;;4862271;29;20060;-87
2022/08/16 07:52:04;;;;;;;7.80;4.18;;;28.50;63.70;;;;;;4858698;29;20549;-88
2022/08/16 07:54:47;;;;;;;10.52;3.90;;;28.60;63.10;;;;;;4863357;29;20033;-90
2022/08/16 07:57:15;;;;;;;8.15;3.92;;;28.70;62.70;;;;;;4853458;29;20081;-91
2022/08/16 07:59:46;;;;;;;9.60;3.70;;;28.40;63.40;;;;;;4857866;29;20056;-89
2022/08/16 08:02:17;;;;;;;8.23;3.65;;;28.40;62.60;;;;;;4869872;29;20125;-86
2022/08/16 08:04:56;;;;;;;4.70;3.20;;;28.40;62.10;;;;;;4855252;29;20048;-87
2022/08/16 08:07:25;;;;;;;7.90;3.55;;;28.40;61.80;;;;;;4855471;29;20122;-89
2022/08/16 08:09:56;;;;;;;7.07;3.78;;;28.40;61.30;;;;;;4861667;29;20450;-90
2022/08/16 08:12:25;;;;;;;9.23;3.53;;;28.30;61.10;;;;;;4859459;29;20064;-91
2022/08/16 08:15:06;;;;;;;3.95;3.17;;;28.40;62.70;;;;;;4859942;29;20049;-90
2022/08/16 08:17:38;;;;;;;6.95;2.95;;;28.40;62.20;;;;;;4840382;29;20485;-91
2022/08/16 08:20:15;;;;;;;5.05;2.95;;;28.40;61.10;;;;;;4859934;29;20052;-90
2022/08/16 08:22:56;;;;;;;4.97;2.57;;;28.50;60.80;;;;;;4875230;29;20109;-91
2022/08/16 08:25:33;;;;;;;5.95;3.47;;;28.60;61.00;;;;;;4856961;29;20352;-92
2022/08/16 08:28:23;;;;;;;5.85;3.90;;;28.50;61.10;;;;;;4861302;29;20476;-91
2022/08/16 08:30:55;;;;;;;3.53;2.80;;;28.70;61.90;;;;;;4852798;29;20041;-90
2022/08/16 08:33:34;;;;;;;7.25;3.67;;;28.80;60.20;;;;;;4873286;29;20080;-91
2022/08/16 08:36:06;;;;;;;6.40;3.42;;;28.80;61.40;;;;;;4872346;29;20045;-91
2022/08/16 08:38:35;;;;;;;11.32;3.50;;;28.80;61.00;;;;;;4860968;29;20052;-92
2022/08/16 08:41:17;;;;;;;7.27;3.40;;;29.10;61.30;;;;;;4866464;29;20163;-89
2022/08/16 08:43:57;;;;;;;6.90;3.63;;;29.00;61.20;;;;;;4863475;29;20307;-90
2022/08/16 08:46:25;;;;;;;8.48;3.90;;;28.70;61.60;;;;;;4850508;29;20422;-92
2022/08/16 08:48:55;;;;;;;11.70;3.65;;;28.70;62.50;;;;;;4845617;29;20080;-89
2022/08/16 08:51:39;;;;;;;7.27;4.13;;;29.10;62.90;;;;;;4869616;29;20055;-90
2022/08/16 08:54:13;;;;;;;6.38;3.88;;;29.40;62.10;;;;;;4846841;29;20044;-94
2022/08/16 08:56:52;;;;;;;7.28;4.10;;;29.40;61.20;;;;;;4860439;29;20796;-92
2022/08/16 08:59:33;;;;;;;5.10;3.03;;;29.30;60.30;;;;;;4860723;29;20049;-90
2022/08/16 09:02:10;;;;;;;5.38;3.42;;;29.40;60.00;;;;;;4869053;29;20503;-91
2022/08/16 09:04:43;;;;;;;8.85;3.63;;;29.60;59.10;;;;;;4859881;29;20144;-91
2022/08/16 09:07:17;;;;;;;5.25;2.80;;;29.60;59.80;;;;;;4856659;29;20092;-94
2022/08/16 09:09:46;;;;;;;8.23;3.70;;;29.50;58.00;;;;;;4861650;29;20045;-90
2022/08/16 09:12:17;;;;;;;8.25;3.20;;;29.60;58.00;;;;;;4842941;29;20056;-88
2022/08/16 09:15:08;;;;;;;7.30;3.00;;;29.60;58.00;;;;;;4863967;29;20044;-91
2022/08/16 09:17:41;;;;;;;5.60;2.95;;;29.70;56.60;;;;;;4862818;29;20227;-90
2022/08/16 09:20:24;;;;;;;4.13;2.13;;;29.70;56.70;;;;;;4853963;29;20056;-87
2022/08/16 09:22:52;;;;;;;6.32;1.85;;;29.70;55.70;;;;;;4864019;29;20059;-90
2022/08/16 09:25:32;;;;;;;2.65;1.60;;;29.60;54.20;;;;;;4858262;29;20061;-89
2022/08/16 09:28:04;;;;;;;7.20;2.00;;;29.70;53.50;;;;;;4843741;29;20040;-94
2022/08/16 09:30:56;;;;;;;4.20;1.70;;;29.80;53.10;;;;;;4878466;29;20056;-93
2022/08/16 09:33:26;;;;;;;12.10;2.40;;;29.90;53.50;;;;;;4860784;29;20052;-85
2022/08/16 09:36:03;;;;;;;9.13;2.60;;;29.70;52.90;;;;;;4860104;29;20098;-88
2022/08/16 09:38:39;;;;;;;5.38;2.10;;;29.90;52.70;;;;;;4858892;29;20433;-87
2022/08/16 09:41:09;;;;;;;2.58;1.60;;;30.00;52.80;;;;;;4841697;29;20502;-90
2022/08/16 09:43:41;;;;;;;4.85;1.67;;;29.90;52.60;;;;;;4859351;29;20498;-90
2022/08/16 09:46:30;;;;;;;3.75;1.90;;;29.90;53.30;;;;;;4858364;29;20048;-89
2022/08/16 09:49:13;;;;;;;2.55;1.73;;;30.10;53.00;;;;;;4849696;29;20084;-94
2022/08/16 09:51:41;;;;;;;2.63;1.38;;;30.20;53.10;;;;;;4866986;29;20041;-91
2022/08/16 09:54:09;;;;;;;2.95;1.67;;;30.10;52.00;;;;;;4867051;29;20051;-93
2022/08/16 09:56:43;;;;;;;2.33;1.40;;;30.10;52.50;;;;;;4857816;29;20045;-88
2022/08/16 09:59:21;;;;;;;10.07;2.20;;;30.20;53.60;;;;;;4853080;29;20053;-90
2022/08/16 10:01:58;;;;;;;2.58;1.63;;;30.30;52.60;;;;;;4865437;29;20128;-92
2022/08/16 10:04:47;;;;;;;3.65;1.88;;;30.20;52.10;;;;;;4862418;29;20060;-89
2022/08/16 10:07:23;;;;;;;2.20;1.80;;;30.50;53.50;;;;;;4860142;29;20060;-86
2022/08/16 10:09:51;;;;;;;3.38;2.17;;;30.50;52.20;;;;;;4854979;29;20060;-92
2022/08/16 10:15:23;;;;;;;4.22;2.10;;;30.60;52.40;;;;;;4854745;29;20052;-93
2022/08/16 10:17:53;;;;;;;3.85;2.20;;;30.50;53.40;;;;;;4863325;29;20068;-90
2022/08/16 10:20:35;;;;;;;3.28;2.20;;;30.60;53.50;;;;;;4878145;29;20055;-92
2022/08/16 10:23:07;;;;;;;2.58;1.75;;;30.80;53.30;;;;;;4865083;29;20049;-93
2022/08/16 10:25:44;;;;;;;2.30;1.73;;;30.70;48.70;;;;;;4872430;29;20487;-96
2022/08/16 10:28:35;;;;;;;3.25;2.15;;;30.70;51.10;;;;;;4879236;29;20052;-89
2022/08/16 10:31:08;;;;;;;4.60;1.70;;;30.80;49.40;;;;;;4864327;29;20063;-89
2022/08/16 10:33:43;;;;;;;3.53;1.95;;;30.80;49.50;;;;;;4859371;29;20076;-88
2022/08/16 10:36:13;;;;;;;3.70;1.90;;;30.90;49.80;;;;;;4877909;29;20086;-89
2022/08/16 10:39:02;;;;;;;3.83;1.77;;;30.90;48.90;;;;;;4866563;29;20052;-88
2022/08/16 10:41:31;;;;;;;3.53;2.10;;;30.90;50.30;;;;;;4843815;29;20046;-88
2022/08/16 10:44:00;;;;;;;4.65;1.92;;;31.10;50.30;;;;;;4872403;29;20184;-86
2022/08/16 10:46:29;;;;;;;4.40;2.13;;;31.10;51.80;;;;;;4862091;29;20041;-87
2022/08/16 10:49:10;;;;;;;3.78;2.08;;;31.30;50.20;;;;;;4857345;29;20495;-88
2022/08/16 10:51:38;;;;;;;5.70;2.05;;;31.40;50.20;;;;;;4848007;29;20403;-88
2022/08/16 10:54:27;;;;;;;1.90;1.70;;;31.40;50.10;;;;;;4870836;29;20558;-88
2022/08/16 10:56:59;;;;;;;3.70;2.15;;;31.50;50.00;;;;;;4877247;29;20069;-86
2022/08/16 10:59:30;;;;;;;4.30;2.00;;;31.40;49.70;;;;;;4864671;29;20053;-87
2022/08/16 11:02:19;;;;;;;4.50;1.60;;;31.50;49.50;;;;;;4855329;29;20049;-89
2022/08/16 11:05:11;;;;;;;3.22;1.98;;;31.50;49.00;;;;;;4860389;29;20144;-89
2022/08/16 11:07:42;;;;;;;3.00;1.88;;;31.30;48.00;;;;;;4863268;29;20045;-89
2022/08/16 11:10:23;;;;;;;3.10;1.95;;;31.30;48.90;;;;;;4844160;29;20053;-84
2022/08/16 11:13:11;;;;;;;2.67;2.00;;;31.40;49.90;;;;;;4863349;29;20041;-89
2022/08/16 11:15:59;;;;;;;2.38;1.83;;;31.40;48.50;;;;;;4881431;29;20500;-88
2022/08/16 11:18:47;;;;;;;3.67;1.63;;;31.50;49.10;;;;;;4864799;29;20061;-89
2022/08/16 11:21:35;;;;;;;1.88;1.67;;;31.70;49.00;;;;;;4855941;29;20410;-89
2022/08/16 11:24:23;;;;;;;4.03;2.10;;;31.80;49.30;;;;;;4847509;29;20042;-87
2022/08/16 11:27:14;;;;;;;3.20;2.05;;;31.80;48.10;;;;;;4863948;29;20060;-88
2022/08/16 11:29:49;;;;;;;3.38;1.90;;;31.70;48.10;;;;;;4852353;29;20076;-88
2022/08/16 11:32:18;;;;;;;2.60;2.03;;;31.70;47.30;;;;;;4857368;29;20053;-96
2022/08/16 11:34:58;;;;;;;4.80;2.15;;;31.80;47.20;;;;;;4861422;29;20076;-86
2022/08/16 11:37:39;;;;;;;2.55;1.98;;;31.80;47.60;;;;;;4846299;29;20068;-85
2022/08/16 11:40:30;;;;;;;7.00;2.30;;;31.80;46.10;;;;;;4865001;29;20156;-90
2022/08/16 11:43:00;;;;;;;2.90;1.80;;;31.90;46.70;;;;;;4861076;29;20049;-89
2022/08/16 11:45:31;;;;;;;3.97;2.10;;;31.90;46.80;;;;;;4863011;29;20430;-89
2022/08/16 11:48:04;;;;;;;2.53;1.85;;;31.80;46.30;;;;;;4862542;29;20410;-91
2022/08/16 11:50:33;;;;;;;2.22;1.88;;;32.10;47.70;;;;;;4858057;29;20049;-88
2022/08/16 11:53:02;;;;;;;5.53;2.22;;;32.30;46.90;;;;;;4861125;29;20112;-89
2022/08/16 11:55:30;;;;;;;3.33;1.73;;;32.20;45.50;;;;;;4861511;29;20072;-88
2022/08/16 11:57:59;;;;;;;3.15;1.75;;;32.20;47.20;;;;;;4862493;29;20045;-86
2022/08/16 12:00:28;;;;;;;3.60;1.65;;;32.40;45.40;;;;;;4859456;29;20132;-89
2022/08/16 12:03:16;;;;;;;2.28;1.90;;;32.50;47.20;;;;;;4859684;29;20511;-88
2022/08/16 12:05:45;;;;;;;2.33;1.80;;;32.60;45.60;;;;;;4862876;29;20075;-91
2022/08/16 12:08:20;;;;;;;5.25;2.35;;;32.60;46.30;;;;;;4862197;29;20052;-88
2022/08/16 12:10:54;;;;;;;3.40;2.13;;;32.40;45.90;;;;;;4862726;29;20056;-88
2022/08/16 12:13:28;;;;;;;2.13;1.92;;;32.60;45.20;;;;;;4853802;29;20045;-87
2022/08/16 12:15:56;;;;;;;3.15;2.00;;;32.70;46.60;;;;;;4861229;29;20076;-87
2022/08/16 12:18:24;;;;;;;6.28;2.17;;;32.80;45.80;;;;;;4856908;29;20152;-90
2022/08/16 12:20:52;;;;;;;3.88;2.22;;;32.70;46.50;;;;;;4872671;29;20153;-85
2022/08/16 12:23:24;;;;;;;9.75;2.10;;;32.50;47.40;;;;;;4860488;29;20059;-87
2022/08/16 12:25:52;;;;;;;6.40;2.00;;;32.30;48.40;;;;;;4851333;29;20144;-88
2022/08/16 12:28:20;;;;;;;3.92;2.13;;;31.80;47.90;;;;;;4858234;29;20141;-88
2022/08/16 12:31:08;;;;;;;3.10;1.52;;;31.60;48.50;;;;;;4862774;29;20053;-85
2022/08/16 12:33:42;;;;;;;3.38;1.65;;;31.50;48.40;;;;;;4860215;29;20061;-89
2022/08/16 12:36:12;;;;;;;2.47;1.40;;;31.30;48.50;;;;;;4861186;29;20539;-89
2022/08/16 12:38:41;;;;;;;2.65;1.00;;;31.20;47.80;;;;;;4860261;29;20133;-90
2022/08/16 12:41:15;;;;;;;2.10;1.60;;;31.00;46.20;;;;;;4850252;29;20428;-87
2022/08/16 12:43:52;;;;;;;1.73;1.05;;;30.90;46.60;;;;;;4845822;29;20125;-88
2022/08/16 12:46:25;;;;;;;1.52;1.30;;;31.00;46.80;;;;;;4863034;29;20508;-88
2022/08/16 12:48:58;;;;;;;2.88;1.30;;;31.10;46.90;;;;;;4864425;29;20045;-87
2022/08/16 12:51:26;;;;;;;4.72;1.38;;;31.20;46.60;;;;;;4862377;29;20089;-87
2022/08/16 12:54:00;;;;;;;2.55;1.50;;;31.40;46.40;;;;;;4862930;29;20053;-88
2022/08/16 12:56:34;;;;;;;4.75;1.33;;;31.50;45.70;;;;;;4844226;29;20055;-84
2022/08/16 12:59:08;;;;;;;2.00;1.23;;;31.80;45.90;;;;;;4876076;29;20147;-89
2022/08/16 13:01:40;;;;;;;2.15;1.20;;;32.00;45.70;;;;;;4855628;29;20052;-87
2022/08/16 13:04:08;;;;;;;2.22;1.40;;;32.00;45.00;;;;;;4854133;29;20052;-87
2022/08/16 13:06:48;;;;;;;4.43;1.45;;;32.20;44.80;;;;;;4845432;29;20049;-85
2022/08/16 13:09:22;;;;;;;2.15;1.42;;;32.10;44.60;;;;;;4855767;29;20057;-86
2022/08/16 13:12:18;;;;;;;3.55;1.38;;;32.10;44.90;;;;;;4858694;29;20077;-85
2022/08/16 13:14:47;;;;;;;2.10;1.73;;;32.30;43.90;;;;;;4865349;29;20144;-87
2022/08/16 13:17:20;;;;;;;3.95;2.08;;;32.30;44.20;;;;;;4860337;29;20045;-88
2022/08/16 13:19:50;;;;;;;1.50;1.25;;;32.30;44.40;;;;;;4860022;29;20060;-86
2022/08/16 13:22:37;;;;;;;3.08;1.60;;;32.60;44.30;;;;;;4859943;29;20041;-87
2022/08/16 13:25:07;;;;;;;2.67;2.10;;;32.60;45.70;;;;;;4860313;29;20163;-87
2022/08/16 13:27:36;;;;;;;3.67;1.95;;;32.40;45.10;;;;;;4847110;29;20737;-87
2022/08/16 13:30:25;;;;;;;3.60;2.35;;;32.60;46.00;;;;;;4865956;29;20049;-90
2022/08/16 13:33:05;;;;;;;3.25;1.73;;;32.60;45.70;;;;;;4854153;29;20139;-90
2022/08/16 13:35:43;;;;;;;2.00;1.75;;;32.40;45.60;;;;;;4858316;29;20045;-90